sensor_id;sensor_type;location;lat;lon;timestamp;temperature;humidity
67559;DHT22;54388;53.536;49.300;2023-06-10T00:02:01;22.20;46.90
67559;DHT22;54388;53.536;49.300;2023-06-10T00:04:27;22.20;46.90
67559;DHT22;54388;53.536;49.300;2023-06-10T00:06:54;22.20;47.00
67559;DHT22;54388;53.536;49.300;2023-06-10T00:09:21;22.20;47.20
67559;DHT22;54388;53.536;49.300;2023-06-10T00:11:48;22.20;47.20
67559;DHT22;54388;53.536;49.300;2023-06-10T00:14:15;22.20;47.20
67559;DHT22;54388;53.536;49.300;2023-06-10T00:16:41;22.20;47.20
67559;DHT22;54388;53.536;49.300;2023-06-10T00:19:11;22.20;47.30
67559;DHT22;54388;53.536;49.300;2023-06-10T00:21:39;22.20;47.40
67559;DHT22;54388;53.536;49.300;2023-06-10T00:24:08;22.10;47.40
67559;DHT22;54388;53.536;49.300;2023-06-10T00:26:39;22.10;47.50
67559;DHT22;54388;53.536;49.300;2023-06-10T00:29:05;22.10;47.60
67559;DHT22;54388;53.536;49.300;2023-06-10T00:31:37;22.10;47.60
67559;DHT22;54388;53.536;49.300;2023-06-10T00:34:04;22.10;47.60
67559;DHT22;54388;53.536;49.300;2023-06-10T00:36:31;22.10;47.60
67559;DHT22;54388;53.536;49.300;2023-06-10T00:38:57;22.10;47.60
67559;DHT22;54388;53.536;49.300;2023-06-10T00:41:24;22.10;47.60
67559;DHT22;54388;53.536;49.300;2023-06-10T00:43:52;22.10;47.70
67559;DHT22;54388;53.536;49.300;2023-06-10T00:46:20;22.10;47.70
67559;DHT22;54388;53.536;49.300;2023-06-10T00:48:47;22.00;47.70
67559;DHT22;54388;53.536;49.300;2023-06-10T00:51:15;22.00;47.70
67559;DHT22;54388;53.536;49.300;2023-06-10T00:53:42;22.00;47.80
67559;DHT22;54388;53.536;49.300;2023-06-10T00:56:09;22.00;47.80
67559;DHT22;54388;53.536;49.300;2023-06-10T00:58:36;22.00;47.80
67559;DHT22;54388;53.536;49.300;2023-06-10T01:01:04;22.00;47.80
67559;DHT22;54388;53.536;49.300;2023-06-10T01:03:30;22.00;47.90
67559;DHT22;54388;53.536;49.300;2023-06-10T01:12:08;22.00;48.50
67559;DHT22;54388;53.536;49.300;2023-06-10T01:14:36;22.00;48.50
67559;DHT22;54388;53.536;49.300;2023-06-10T01:17:03;22.00;48.40
67559;DHT22;54388;53.536;49.300;2023-06-10T01:19:30;22.00;48.60
67559;DHT22;54388;53.536;49.300;2023-06-10T01:21:58;22.00;48.80
67559;DHT22;54388;53.536;49.300;2023-06-10T01:24:27;22.00;49.00
67559;DHT22;54388;53.536;49.300;2023-06-10T01:26:55;22.00;49.10
67559;DHT22;54388;53.536;49.300;2023-06-10T01:29:33;22.00;49.20
67559;DHT22;54388;53.536;49.300;2023-06-10T01:32:15;22.00;49.40
67559;DHT22;54388;53.536;49.300;2023-06-10T01:34:44;22.00;49.40
67559;DHT22;54388;53.536;49.300;2023-06-10T01:37:13;22.10;49.40
67559;DHT22;54388;53.536;49.300;2023-06-10T01:39:42;22.10;49.30
67559;DHT22;54388;53.536;49.300;2023-06-10T01:42:10;22.20;49.30
67559;DHT22;54388;53.536;49.300;2023-06-10T01:44:39;22.20;49.30
67559;DHT22;54388;53.536;49.300;2023-06-10T01:47:06;22.30;49.30
67559;DHT22;54388;53.536;49.300;2023-06-10T01:49:32;22.40;49.20
67559;DHT22;54388;53.536;49.300;2023-06-10T01:51:59;22.40;49.10
67559;DHT22;54388;53.536;49.300;2023-06-10T01:54:25;22.50;49.00
67559;DHT22;54388;53.536;49.300;2023-06-10T01:56:52;22.60;48.80
67559;DHT22;54388;53.536;49.300;2023-06-10T01:59:19;22.60;48.60
67559;DHT22;54388;53.536;49.300;2023-06-10T02:01:45;22.70;48.60
67559;DHT22;54388;53.536;49.300;2023-06-10T02:04:12;22.80;48.40
67559;DHT22;54388;53.536;49.300;2023-06-10T02:06:38;22.90;49.20
67559;DHT22;54388;53.536;49.300;2023-06-10T02:09:05;23.00;48.00
67559;DHT22;54388;53.536;49.300;2023-06-10T02:11:32;23.20;47.50
67559;DHT22;54388;53.536;49.300;2023-06-10T02:13:58;23.40;47.00
67559;DHT22;54388;53.536;49.300;2023-06-10T02:16:25;23.60;46.50
67559;DHT22;54388;53.536;49.300;2023-06-10T02:18:52;23.80;46.00
67559;DHT22;54388;53.536;49.300;2023-06-10T02:21:19;24.10;45.30
67559;DHT22;54388;53.536;49.300;2023-06-10T02:23:45;24.30;44.60
67559;DHT22;54388;53.536;49.300;2023-06-10T02:26:12;24.50;44.00
67559;DHT22;54388;53.536;49.300;2023-06-10T02:28:41;24.80;43.30
67559;DHT22;54388;53.536;49.300;2023-06-10T02:31:08;25.00;42.80
67559;DHT22;54388;53.536;49.300;2023-06-10T02:33:34;25.30;42.10
67559;DHT22;54388;53.536;49.300;2023-06-10T02:36:01;25.50;41.50
67559;DHT22;54388;53.536;49.300;2023-06-10T02:38:27;25.80;41.10
67559;DHT22;54388;53.536;49.300;2023-06-10T02:40:54;26.00;40.50
67559;DHT22;54388;53.536;49.300;2023-06-10T02:43:20;26.30;39.90
67559;DHT22;54388;53.536;49.300;2023-06-10T02:45:47;26.50;39.20
67559;DHT22;54388;53.536;49.300;2023-06-10T02:48:13;26.90;38.30
67559;DHT22;54388;53.536;49.300;2023-06-10T02:50:40;27.10;37.50
67559;DHT22;54388;53.536;49.300;2023-06-10T02:53:06;27.40;37.10
67559;DHT22;54388;53.536;49.300;2023-06-10T02:55:32;27.60;36.60
67559;DHT22;54388;53.536;49.300;2023-06-10T02:57:59;27.90;35.90
67559;DHT22;54388;53.536;49.300;2023-06-10T03:00:26;28.20;35.50
67559;DHT22;54388;53.536;49.300;2023-06-10T03:02:53;28.40;35.10
67559;DHT22;54388;53.536;49.300;2023-06-10T03:05:23;28.70;34.70
67559;DHT22;54388;53.536;49.300;2023-06-10T03:07:50;28.90;34.20
67559;DHT22;54388;53.536;49.300;2023-06-10T03:10:17;29.20;33.70
67559;DHT22;54388;53.536;49.300;2023-06-10T03:12:43;29.50;33.30
67559;DHT22;54388;53.536;49.300;2023-06-10T03:15:10;29.70;32.70
67559;DHT22;54388;53.536;49.300;2023-06-10T03:17:36;29.90;32.30
67559;DHT22;54388;53.536;49.300;2023-06-10T03:20:03;30.20;31.90
67559;DHT22;54388;53.536;49.300;2023-06-10T03:22:34;30.40;31.40
67559;DHT22;54388;53.536;49.300;2023-06-10T03:25:01;30.70;31.10
67559;DHT22;54388;53.536;49.300;2023-06-10T03:27:27;30.90;30.60
67559;DHT22;54388;53.536;49.300;2023-06-10T03:29:55;31.20;30.10
67559;DHT22;54388;53.536;49.300;2023-06-10T03:32:22;31.40;29.80
67559;DHT22;54388;53.536;49.300;2023-06-10T03:34:48;31.60;29.20
67559;DHT22;54388;53.536;49.300;2023-06-10T03:37:15;31.80;29.00
67559;DHT22;54388;53.536;49.300;2023-06-10T03:39:41;31.90;28.70
67559;DHT22;54388;53.536;49.300;2023-06-10T03:42:07;32.10;28.50
67559;DHT22;54388;53.536;49.300;2023-06-10T03:44:34;32.20;28.30
67559;DHT22;54388;53.536;49.300;2023-06-10T03:47:00;32.30;28.00
67559;DHT22;54388;53.536;49.300;2023-06-10T03:49:27;32.40;27.90
67559;DHT22;54388;53.536;49.300;2023-06-10T03:51:55;32.50;27.90
67559;DHT22;54388;53.536;49.300;2023-06-10T03:54:21;32.70;27.70
67559;DHT22;54388;53.536;49.300;2023-06-10T03:56:48;32.70;27.50
67559;DHT22;54388;53.536;49.300;2023-06-10T03:59:15;32.90;27.40
67559;DHT22;54388;53.536;49.300;2023-06-10T04:01:41;33.00;27.20
67559;DHT22;54388;53.536;49.300;2023-06-10T04:04:09;33.20;27.00
67559;DHT22;54388;53.536;49.300;2023-06-10T04:06:36;33.30;26.90
67559;DHT22;54388;53.536;49.300;2023-06-10T04:09:03;33.50;26.70
67559;DHT22;54388;53.536;49.300;2023-06-10T04:11:30;33.60;26.60
67559;DHT22;54388;53.536;49.300;2023-06-10T04:13:58;33.70;26.40
67559;DHT22;54388;53.536;49.300;2023-06-10T04:16:25;33.80;26.30
67559;DHT22;54388;53.536;49.300;2023-06-10T04:18:52;33.90;26.20
67559;DHT22;54388;53.536;49.300;2023-06-10T04:21:18;34.00;26.10
67559;DHT22;54388;53.536;49.300;2023-06-10T04:23:44;34.10;25.90
67559;DHT22;54388;53.536;49.300;2023-06-10T04:26:11;34.30;25.80
67559;DHT22;54388;53.536;49.300;2023-06-10T04:28:38;34.40;25.70
67559;DHT22;54388;53.536;49.300;2023-06-10T04:31:05;34.70;25.60
67559;DHT22;54388;53.536;49.300;2023-06-10T04:33:31;34.80;25.30
67559;DHT22;54388;53.536;49.300;2023-06-10T04:35:58;35.00;25.20
67559;DHT22;54388;53.536;49.300;2023-06-10T04:38:25;35.20;25.10
67559;DHT22;54388;53.536;49.300;2023-06-10T04:40:52;35.40;24.80
67559;DHT22;54388;53.536;49.300;2023-06-10T04:43:18;35.70;24.60
67559;DHT22;54388;53.536;49.300;2023-06-10T04:45:45;35.80;24.30
67559;DHT22;54388;53.536;49.300;2023-06-10T04:48:11;36.00;23.90
67559;DHT22;54388;53.536;49.300;2023-06-10T04:50:38;36.30;23.80
67559;DHT22;54388;53.536;49.300;2023-06-10T04:53:05;36.50;23.70
67559;DHT22;54388;53.536;49.300;2023-06-10T04:55:32;36.70;23.40
67559;DHT22;54388;53.536;49.300;2023-06-10T04:57:59;36.90;23.20
67559;DHT22;54388;53.536;49.300;2023-06-10T05:00:26;37.10;22.90
67559;DHT22;54388;53.536;49.300;2023-06-10T05:02:52;37.30;22.60
67559;DHT22;54388;53.536;49.300;2023-06-10T05:05:19;37.50;22.30
67559;DHT22;54388;53.536;49.300;2023-06-10T05:07:46;37.60;22.30
67559;DHT22;54388;53.536;49.300;2023-06-10T05:10:13;37.80;22.50
67559;DHT22;54388;53.536;49.300;2023-06-10T05:12:40;37.90;22.20
67559;DHT22;54388;53.536;49.300;2023-06-10T05:15:07;38.00;22.10
67559;DHT22;54388;53.536;49.300;2023-06-10T05:17:34;38.00;22.20
67559;DHT22;54388;53.536;49.300;2023-06-10T05:20:03;38.00;22.30
67559;DHT22;54388;53.536;49.300;2023-06-10T05:22:30;38.00;22.30
67559;DHT22;54388;53.536;49.300;2023-06-10T05:24:56;38.00;22.30
67559;DHT22;54388;53.536;49.300;2023-06-10T05:27:23;38.00;23.20
67559;DHT22;54388;53.536;49.300;2023-06-10T05:29:53;38.00;22.30
67559;DHT22;54388;53.536;49.300;2023-06-10T05:32:20;38.00;22.30
67559;DHT22;54388;53.536;49.300;2023-06-10T05:34:46;38.00;22.30
67559;DHT22;54388;53.536;49.300;2023-06-10T05:37:13;38.00;22.10
67559;DHT22;54388;53.536;49.300;2023-06-10T05:39:40;38.10;22.00
67559;DHT22;54388;53.536;49.300;2023-06-10T05:42:07;38.10;21.90
67559;DHT22;54388;53.536;49.300;2023-06-10T05:44:34;38.20;21.80
67559;DHT22;54388;53.536;49.300;2023-06-10T05:47:01;38.30;21.70
67559;DHT22;54388;53.536;49.300;2023-06-10T05:49:27;38.40;21.50
67559;DHT22;54388;53.536;49.300;2023-06-10T05:51:54;38.60;21.50
67559;DHT22;54388;53.536;49.300;2023-06-10T05:54:22;38.70;21.30
67559;DHT22;54388;53.536;49.300;2023-06-10T05:56:48;38.80;21.10
67559;DHT22;54388;53.536;49.300;2023-06-10T05:59:15;39.00;20.80
67559;DHT22;54388;53.536;49.300;2023-06-10T06:01:41;39.20;20.70
67559;DHT22;54388;53.536;49.300;2023-06-10T06:04:08;39.50;20.60
67559;DHT22;54388;53.536;49.300;2023-06-10T06:06:38;39.70;20.40
67559;DHT22;54388;53.536;49.300;2023-06-10T06:09:05;40.00;19.80
67559;DHT22;54388;53.536;49.300;2023-06-10T06:11:32;40.30;19.30
67559;DHT22;54388;53.536;49.300;2023-06-10T06:13:59;40.70;19.30
67559;DHT22;54388;53.536;49.300;2023-06-10T06:16:26;41.00;19.10
67559;DHT22;54388;53.536;49.300;2023-06-10T06:18:52;41.20;18.70
67559;DHT22;54388;53.536;49.300;2023-06-10T06:21:19;41.50;19.10
67559;DHT22;54388;53.536;49.300;2023-06-10T06:23:45;41.70;18.30
67559;DHT22;54388;53.536;49.300;2023-06-10T06:26:12;42.00;17.90
67559;DHT22;54388;53.536;49.300;2023-06-10T06:28:38;42.20;17.50
67559;DHT22;54388;53.536;49.300;2023-06-10T06:31:05;42.50;17.50
67559;DHT22;54388;53.536;49.300;2023-06-10T06:33:31;42.70;17.10
67559;DHT22;54388;53.536;49.300;2023-06-10T06:35:58;42.90;16.90
67559;DHT22;54388;53.536;49.300;2023-06-10T06:38:26;43.10;16.70
67559;DHT22;54388;53.536;49.300;2023-06-10T06:40:53;43.30;16.60
67559;DHT22;54388;53.536;49.300;2023-06-10T06:43:20;43.50;16.60
67559;DHT22;54388;53.536;49.300;2023-06-10T06:45:46;43.50;16.60
67559;DHT22;54388;53.536;49.300;2023-06-10T06:48:13;43.70;16.50
67559;DHT22;54388;53.536;49.300;2023-06-10T06:50:39;43.80;16.50
67559;DHT22;54388;53.536;49.300;2023-06-10T06:53:07;43.80;16.20
67559;DHT22;54388;53.536;49.300;2023-06-10T06:55:34;43.80;15.80
67559;DHT22;54388;53.536;49.300;2023-06-10T06:58:00;43.80;15.70
67559;DHT22;54388;53.536;49.300;2023-06-10T07:00:30;43.90;15.50
67559;DHT22;54388;53.536;49.300;2023-06-10T07:02:57;43.90;15.60
67559;DHT22;54388;53.536;49.300;2023-06-10T07:05:24;44.00;15.80
67559;DHT22;54388;53.536;49.300;2023-06-10T07:07:54;43.90;15.70
67559;DHT22;54388;53.536;49.300;2023-06-10T07:10:26;44.00;15.60
67559;DHT22;54388;53.536;49.300;2023-06-10T07:12:53;44.00;15.60
67559;DHT22;54388;53.536;49.300;2023-06-10T07:15:20;44.00;15.60
67559;DHT22;54388;53.536;49.300;2023-06-10T07:17:47;44.20;15.50
67559;DHT22;54388;53.536;49.300;2023-06-10T07:20:13;44.30;15.40
67559;DHT22;54388;53.536;49.300;2023-06-10T07:22:42;44.50;15.30
67559;DHT22;54388;53.536;49.300;2023-06-10T07:25:08;44.60;14.90
67559;DHT22;54388;53.536;49.300;2023-06-10T07:27:35;44.70;14.60
67559;DHT22;54388;53.536;49.300;2023-06-10T07:30:04;44.90;14.60
67559;DHT22;54388;53.536;49.300;2023-06-10T07:32:32;45.00;14.70
67559;DHT22;54388;53.536;49.300;2023-06-10T07:34:59;45.20;14.70
67559;DHT22;54388;53.536;49.300;2023-06-10T07:37:25;45.30;14.70
67559;DHT22;54388;53.536;49.300;2023-06-10T07:39:52;45.50;14.80
67559;DHT22;54388;53.536;49.300;2023-06-10T07:42:18;45.50;14.80
67559;DHT22;54388;53.536;49.300;2023-06-10T07:44:46;45.60;14.90
67559;DHT22;54388;53.536;49.300;2023-06-10T07:47:13;45.70;14.70
67559;DHT22;54388;53.536;49.300;2023-06-10T07:49:39;45.80;14.70
67559;DHT22;54388;53.536;49.300;2023-06-10T07:52:07;45.80;14.60
67559;DHT22;54388;53.536;49.300;2023-06-10T07:54:34;45.80;14.50
67559;DHT22;54388;53.536;49.300;2023-06-10T07:57:00;45.70;14.70
67559;DHT22;54388;53.536;49.300;2023-06-10T07:59:27;45.60;14.60
67559;DHT22;54388;53.536;49.300;2023-06-10T08:01:53;45.50;14.80
67559;DHT22;54388;53.536;49.300;2023-06-10T08:04:20;45.50;14.90
67559;DHT22;54388;53.536;49.300;2023-06-10T08:06:46;45.40;14.90
67559;DHT22;54388;53.536;49.300;2023-06-10T08:09:13;45.40;15.00
67559;DHT22;54388;53.536;49.300;2023-06-10T08:11:40;45.30;15.10
67559;DHT22;54388;53.536;49.300;2023-06-10T08:14:06;45.30;15.20
67559;DHT22;54388;53.536;49.300;2023-06-10T08:16:33;45.40;15.20
67559;DHT22;54388;53.536;49.300;2023-06-10T08:18:59;45.40;15.40
67559;DHT22;54388;53.536;49.300;2023-06-10T08:21:26;45.40;15.30
67559;DHT22;54388;53.536;49.300;2023-06-10T08:23:54;45.40;15.30
67559;DHT22;54388;53.536;49.300;2023-06-10T08:26:21;45.40;15.40
67559;DHT22;54388;53.536;49.300;2023-06-10T08:28:48;45.40;15.50
67559;DHT22;54388;53.536;49.300;2023-06-10T08:31:14;45.40;15.70
67559;DHT22;54388;53.536;49.300;2023-06-10T08:33:42;45.30;15.70
67559;DHT22;54388;53.536;49.300;2023-06-10T08:36:09;45.10;15.70
67559;DHT22;54388;53.536;49.300;2023-06-10T08:38:37;44.90;15.90
67559;DHT22;54388;53.536;49.300;2023-06-10T08:41:05;44.70;16.40
67559;DHT22;54388;53.536;49.300;2023-06-10T08:43:39;44.50;16.70
67559;DHT22;54388;53.536;49.300;2023-06-10T08:46:09;44.20;16.80
67559;DHT22;54388;53.536;49.300;2023-06-10T08:48:41;44.00;17.20
67559;DHT22;54388;53.536;49.300;2023-06-10T08:51:10;43.80;17.30
67559;DHT22;54388;53.536;49.300;2023-06-10T08:53:48;43.60;17.60
67559;DHT22;54388;53.536;49.300;2023-06-10T08:56:17;43.40;17.60
67559;DHT22;54388;53.536;49.300;2023-06-10T08:58:45;43.20;17.60
67559;DHT22;54388;53.536;49.300;2023-06-10T09:01:12;43.00;17.60
67559;DHT22;54388;53.536;49.300;2023-06-10T09:03:39;42.80;17.80
67559;DHT22;54388;53.536;49.300;2023-06-10T09:06:07;42.60;18.70
67559;DHT22;54388;53.536;49.300;2023-06-10T09:08:35;42.40;17.90
67559;DHT22;54388;53.536;49.300;2023-06-10T09:11:02;42.20;18.10
67559;DHT22;54388;53.536;49.300;2023-06-10T09:13:29;42.10;18.30
67559;DHT22;54388;53.536;49.300;2023-06-10T09:15:56;42.00;18.40
67559;DHT22;54388;53.536;49.300;2023-06-10T09:18:27;41.90;18.60
67559;DHT22;54388;53.536;49.300;2023-06-10T09:20:54;41.80;18.40
67559;DHT22;54388;53.536;49.300;2023-06-10T09:23:21;41.70;18.00
67559;DHT22;54388;53.536;49.300;2023-06-10T09:25:56;41.60;18.00
67559;DHT22;54388;53.536;49.300;2023-06-10T09:28:24;41.40;17.90
67559;DHT22;54388;53.536;49.300;2023-06-10T09:31:04;41.20;16.80
67559;DHT22;54388;53.536;49.300;2023-06-10T09:33:31;41.10;16.60
67559;DHT22;54388;53.536;49.300;2023-06-10T09:36:01;41.00;17.50
67559;DHT22;54388;53.536;49.300;2023-06-10T09:38:33;40.80;16.70
67559;DHT22;54388;53.536;49.300;2023-06-10T09:41:00;40.70;17.00
67559;DHT22;54388;53.536;49.300;2023-06-10T09:43:43;40.60;17.20
67559;DHT22;54388;53.536;49.300;2023-06-10T09:46:18;40.50;17.50
67559;DHT22;54388;53.536;49.300;2023-06-10T09:48:46;40.30;17.80
67559;DHT22;54388;53.536;49.300;2023-06-10T09:51:14;40.10;18.30
67559;DHT22;54388;53.536;49.300;2023-06-10T09:53:43;39.80;18.90
67559;DHT22;54388;53.536;49.300;2023-06-10T09:56:13;39.50;19.90
67559;DHT22;54388;53.536;49.300;2023-06-10T09:58:40;39.20;21.30
67559;DHT22;54388;53.536;49.300;2023-06-10T10:01:11;38.80;22.10
67559;DHT22;54388;53.536;49.300;2023-06-10T10:03:45;38.50;22.50
67559;DHT22;54388;53.536;49.300;2023-06-10T10:06:13;38.30;22.90
67559;DHT22;54388;53.536;49.300;2023-06-10T10:08:40;38.10;23.20
67559;DHT22;54388;53.536;49.300;2023-06-10T10:11:07;38.00;23.40
67559;DHT22;54388;53.536;49.300;2023-06-10T10:13:35;37.80;23.70
67559;DHT22;54388;53.536;49.300;2023-06-10T10:16:09;37.40;24.00
67559;DHT22;54388;53.536;49.300;2023-06-10T10:18:43;36.90;24.50
67559;DHT22;54388;53.536;49.300;2023-06-10T10:21:13;36.50;24.90
67559;DHT22;54388;53.536;49.300;2023-06-10T10:23:57;36.00;25.20
67559;DHT22;54388;53.536;49.300;2023-06-10T10:26:30;35.50;25.50
67559;DHT22;54388;53.536;49.300;2023-06-10T10:31:34;34.60;26.50
67559;DHT22;54388;53.536;49.300;2023-06-10T10:34:06;34.30;27.20
67559;DHT22;54388;53.536;49.300;2023-06-10T10:36:33;33.90;33.40
67559;DHT22;54388;53.536;49.300;2023-06-10T10:39:03;33.60;35.00
67559;DHT22;54388;53.536;49.300;2023-06-10T10:41:31;33.30;40.20
67559;DHT22;54388;53.536;49.300;2023-06-10T10:43:59;32.60;47.80
67559;DHT22;54388;53.536;49.300;2023-06-10T10:46:27;31.90;54.40
67559;DHT22;54388;53.536;49.300;2023-06-10T10:48:54;31.30;50.70
67559;DHT22;54388;53.536;49.300;2023-06-10T10:51:22;30.50;46.70
67559;DHT22;54388;53.536;49.300;2023-06-10T10:54:12;29.80;46.70
67559;DHT22;54388;53.536;49.300;2023-06-10T10:56:40;29.00;47.60
67559;DHT22;54388;53.536;49.300;2023-06-10T10:59:52;28.50;51.20
67559;DHT22;54388;53.536;49.300;2023-06-10T11:02:45;28.00;52.30
67559;DHT22;54388;53.536;49.300;2023-06-10T11:05:16;27.60;54.80
67559;DHT22;54388;53.536;49.300;2023-06-10T11:07:53;27.30;55.60
67559;DHT22;54388;53.536;49.300;2023-06-10T11:10:36;27.10;54.20
67559;DHT22;54388;53.536;49.300;2023-06-10T11:13:16;26.80;59.80
67559;DHT22;54388;53.536;49.300;2023-06-10T11:15:47;26.60;63.90
67559;DHT22;54388;53.536;49.300;2023-06-10T11:18:24;26.40;64.20
67559;DHT22;54388;53.536;49.300;2023-06-10T11:21:04;26.10;66.90
67559;DHT22;54388;53.536;49.300;2023-06-10T11:23:38;25.90;69.60
67559;DHT22;54388;53.536;49.300;2023-06-10T11:31:25;25.30;73.40
67559;DHT22;54388;53.536;49.300;2023-06-10T11:33:56;25.10;77.30
67559;DHT22;54388;53.536;49.300;2023-06-10T11:36:24;25.00;82.40
67559;DHT22;54388;53.536;49.300;2023-06-10T11:39:05;24.80;86.60
67559;DHT22;54388;53.536;49.300;2023-06-10T11:41:32;24.80;84.70
67559;DHT22;54388;53.536;49.300;2023-06-10T11:44:11;24.80;93.00
67559;DHT22;54388;53.536;49.300;2023-06-10T11:46:38;24.90;93.40
67559;DHT22;54388;53.536;49.300;2023-06-10T11:49:05;25.00;90.10
67559;DHT22;54388;53.536;49.300;2023-06-10T11:51:36;24.90;91.00
67559;DHT22;54388;53.536;49.300;2023-06-10T11:54:07;25.00;90.30
67559;DHT22;54388;53.536;49.300;2023-06-10T11:56:57;25.10;87.00
67559;DHT22;54388;53.536;49.300;2023-06-10T11:59:27;25.20;90.70
67559;DHT22;54388;53.536;49.300;2023-06-10T12:01:54;25.30;85.00
67559;DHT22;54388;53.536;49.300;2023-06-10T12:04:21;25.40;87.10
67559;DHT22;54388;53.536;49.300;2023-06-10T12:10:18;25.70;78.50
67559;DHT22;54388;53.536;49.300;2023-06-10T12:12:58;25.90;75.80
67559;DHT22;54388;53.536;49.300;2023-06-10T12:15:25;26.10;66.00
67559;DHT22;54388;53.536;49.300;2023-06-10T12:17:52;26.20;67.70
67559;DHT22;54388;53.536;49.300;2023-06-10T12:20:27;26.40;62.60
67559;DHT22;54388;53.536;49.300;2023-06-10T12:22:56;26.60;62.20
67559;DHT22;54388;53.536;49.300;2023-06-10T12:25:28;26.80;57.70
67559;DHT22;54388;53.536;49.300;2023-06-10T12:27:57;27.00;54.50
67559;DHT22;54388;53.536;49.300;2023-06-10T12:30:26;27.10;51.40
67559;DHT22;54388;53.536;49.300;2023-06-10T12:32:53;27.20;50.20
67559;DHT22;54388;53.536;49.300;2023-06-10T12:35:22;27.40;48.90
67559;DHT22;54388;53.536;49.300;2023-06-10T12:38:02;27.40;47.70
67559;DHT22;54388;53.536;49.300;2023-06-10T12:40:33;27.50;46.30
67559;DHT22;54388;53.536;49.300;2023-06-10T12:43:00;27.50;46.30
67559;DHT22;54388;53.536;49.300;2023-06-10T12:45:35;27.60;46.40
67559;DHT22;54388;53.536;49.300;2023-06-10T12:48:18;27.60;46.80
67559;DHT22;54388;53.536;49.300;2023-06-10T12:50:54;27.80;48.70
67559;DHT22;54388;53.536;49.300;2023-06-10T12:53:23;27.90;45.30
67559;DHT22;54388;53.536;49.300;2023-06-10T12:55:50;27.90;45.60
67559;DHT22;54388;53.536;49.300;2023-06-10T12:58:19;27.80;46.20
67559;DHT22;54388;53.536;49.300;2023-06-10T13:00:47;27.90;47.20
67559;DHT22;54388;53.536;49.300;2023-06-10T13:03:15;27.90;47.70
67559;DHT22;54388;53.536;49.300;2023-06-10T13:05:43;28.00;46.60
67559;DHT22;54388;53.536;49.300;2023-06-10T13:08:09;28.10;46.50
67559;DHT22;54388;53.536;49.300;2023-06-10T13:10:37;28.20;46.30
67559;DHT22;54388;53.536;49.300;2023-06-10T13:13:04;28.40;45.90
67559;DHT22;54388;53.536;49.300;2023-06-10T13:15:34;28.60;45.30
67559;DHT22;54388;53.536;49.300;2023-06-10T13:18:04;28.90;44.10
67559;DHT22;54388;53.536;49.300;2023-06-10T13:20:31;29.10;42.40
67559;DHT22;54388;53.536;49.300;2023-06-10T13:22:58;29.30;41.40
67559;DHT22;54388;53.536;49.300;2023-06-10T13:25:25;29.50;40.30
67559;DHT22;54388;53.536;49.300;2023-06-10T13:27:52;29.70;39.70
67559;DHT22;54388;53.536;49.300;2023-06-10T13:30:18;29.70;39.00
67559;DHT22;54388;53.536;49.300;2023-06-10T13:32:45;29.60;38.00
67559;DHT22;54388;53.536;49.300;2023-06-10T13:35:12;29.40;37.20
67559;DHT22;54388;53.536;49.300;2023-06-10T13:37:39;29.30;36.90
67559;DHT22;54388;53.536;49.300;2023-06-10T13:40:07;29.20;36.90
67559;DHT22;54388;53.536;49.300;2023-06-10T13:42:35;29.20;36.60
67559;DHT22;54388;53.536;49.300;2023-06-10T13:45:03;29.10;36.70
67559;DHT22;54388;53.536;49.300;2023-06-10T13:47:32;29.00;36.70
67559;DHT22;54388;53.536;49.300;2023-06-10T13:49:58;29.00;37.30
67559;DHT22;54388;53.536;49.300;2023-06-10T13:52:25;29.00;37.10
67559;DHT22;54388;53.536;49.300;2023-06-10T13:54:52;29.00;37.00
67559;DHT22;54388;53.536;49.300;2023-06-10T13:57:19;29.00;37.20
67559;DHT22;54388;53.536;49.300;2023-06-10T13:59:46;29.10;37.30
67559;DHT22;54388;53.536;49.300;2023-06-10T14:02:13;29.20;37.30
67559;DHT22;54388;53.536;49.300;2023-06-10T14:04:40;29.30;37.30
67559;DHT22;54388;53.536;49.300;2023-06-10T14:07:07;29.40;37.30
67559;DHT22;54388;53.536;49.300;2023-06-10T14:09:34;29.50;36.80
67559;DHT22;54388;53.536;49.300;2023-06-10T14:12:00;29.50;36.90
67559;DHT22;54388;53.536;49.300;2023-06-10T14:14:29;29.60;36.70
67559;DHT22;54388;53.536;49.300;2023-06-10T14:16:57;29.70;36.60
67559;DHT22;54388;53.536;49.300;2023-06-10T14:19:24;29.70;36.90
67559;DHT22;54388;53.536;49.300;2023-06-10T14:21:52;29.80;37.30
67559;DHT22;54388;53.536;49.300;2023-06-10T14:24:22;29.90;37.20
67559;DHT22;54388;53.536;49.300;2023-06-10T14:26:49;29.90;36.80
67559;DHT22;54388;53.536;49.300;2023-06-10T14:29:16;30.00;36.20
67559;DHT22;54388;53.536;49.300;2023-06-10T14:31:44;30.20;36.10
67559;DHT22;54388;53.536;49.300;2023-06-10T14:34:11;30.30;35.40
67559;DHT22;54388;53.536;49.300;2023-06-10T14:36:38;30.50;35.00
67559;DHT22;54388;53.536;49.300;2023-06-10T14:39:05;30.70;34.30
67559;DHT22;54388;53.536;49.300;2023-06-10T14:41:32;30.90;33.90
67559;DHT22;54388;53.536;49.300;2023-06-10T14:43:59;31.10;33.10
67559;DHT22;54388;53.536;49.300;2023-06-10T14:46:26;31.30;32.50
67559;DHT22;54388;53.536;49.300;2023-06-10T14:48:53;31.40;31.60
67559;DHT22;54388;53.536;49.300;2023-06-10T14:51:19;31.60;31.90
67559;DHT22;54388;53.536;49.300;2023-06-10T14:53:47;31.60;31.90
67559;DHT22;54388;53.536;49.300;2023-06-10T14:56:14;31.60;31.50
67559;DHT22;54388;53.536;49.300;2023-06-10T14:58:41;31.60;31.80
67559;DHT22;54388;53.536;49.300;2023-06-10T15:01:08;31.60;31.00
67559;DHT22;54388;53.536;49.300;2023-06-10T15:03:35;31.70;31.10
67559;DHT22;54388;53.536;49.300;2023-06-10T15:06:02;31.70;31.00
67559;DHT22;54388;53.536;49.300;2023-06-10T15:08:29;31.70;31.00
67559;DHT22;54388;53.536;49.300;2023-06-10T15:10:56;31.70;30.70
67559;DHT22;54388;53.536;49.300;2023-06-10T15:13:23;31.60;30.60
67559;DHT22;54388;53.536;49.300;2023-06-10T15:15:51;31.60;30.40
67559;DHT22;54388;53.536;49.300;2023-06-10T15:18:17;31.50;30.30
67559;DHT22;54388;53.536;49.300;2023-06-10T15:20:44;31.50;30.00
67559;DHT22;54388;53.536;49.300;2023-06-10T15:23:11;31.40;29.90
67559;DHT22;54388;53.536;49.300;2023-06-10T15:25:38;31.50;29.90
67559;DHT22;54388;53.536;49.300;2023-06-10T15:28:07;31.50;29.90
67559;DHT22;54388;53.536;49.300;2023-06-10T15:30:34;31.60;29.80
67559;DHT22;54388;53.536;49.300;2023-06-10T15:33:01;31.70;29.80
67559;DHT22;54388;53.536;49.300;2023-06-10T15:35:28;31.70;29.50
67559;DHT22;54388;53.536;49.300;2023-06-10T15:37:54;31.70;29.50
67559;DHT22;54388;53.536;49.300;2023-06-10T15:40:21;31.70;29.60